Weather History for Sturgeon Bay, WI

Change the Weather History Date:

Tuesday, December 31, 2013

  Actual Average Record
Temperature  
Mean Temperature -1 °F -  
Max Temperature 3 °F 27 °F 52 °F (1965)
Min Temperature -5 °F 12 °F -13 °F (1967)
Degree Days  
Heating Degree Days 66    
Moisture  
Dew Point -10 °F    
Average Humidity 65    
Maximum Humidity 78    
Minimum Humidity 55    
Precipitation  
Precipitation 0.00 in - - ()
Sea Level Pressure  
Sea Level Pressure 30.19 in    
Wind  
Wind Speed 11 mph (WNW)    
Max Wind Speed 17 mph    
Max Gust Speed 21 mph    
Visibility 10 miles    
Events      
Averages and records for this station are not official NWS values.
T = Trace of Precipitation, MM = Missing Value Source: NWS Daily Summary

Daily Weather History Graph

Daily Weather History Graph

Search for Another Location

Airport:

Trip Planner

Search our weather history database for the weather conditions in past years. The results will help you decide how hot, cold, wet, or windy it might be!

Date:

Astronomy

Dec. 31, 2013 Rise Set
Actual Time 7:27 AM CST 4:18 PM CST
Civil Twilight 6:53 AM CST 4:52 PM CST
Nautical Twilight 6:16 AM CST 5:29 PM CST
Astronomical Twilight 5:41 AM CST 6:04 PM CST
Moon 6:17 AM CST (12/31) 3:56 PM CST (12/31)
Length of Visible Light 9h 58m
Length of Day
8h 51m
Waning Crescent, 1% of the Moon is Illuminated
Dec 31
Waning Crescent
Jan 1
New
Jan 7
First Quarter
Jan 15
Full
Jan 23
Last Quarter

Hourly Weather History & Observations

Time (CST) Temp. Windchill Dew Point Humidity Pressure Visibility Wind Dir Wind Speed Gust Speed Precip Events Conditions
12:15 AM -0.4 °F -16.7 °F -5.8 °F 78% 30.08 in 6.0 mi West 10.4 mph - N/A   Mostly Cloudy
12:35 AM -0.4 °F -16.7 °F -5.8 °F 78% 30.08 in 10.0 mi WNW 10.4 mph 16.1 mph N/A   Mostly Cloudy
12:55 AM -0.4 °F -15.7 °F -7.6 °F 72% 30.08 in 9.0 mi West 9.2 mph - N/A   Overcast
1:15 AM -0.4 °F -16.7 °F -5.8 °F 78% 30.07 in 10.0 mi West 10.4 mph - N/A   Overcast
1:35 AM -0.4 °F -16.7 °F -7.6 °F 72% 30.07 in 10.0 mi WNW 10.4 mph 18.4 mph N/A   Overcast
1:55 AM -0.4 °F -16.7 °F -7.6 °F 72% 30.07 in 10.0 mi WNW 10.4 mph - N/A   Overcast
2:15 AM -0.4 °F -15.7 °F -9.4 °F 66% 30.07 in 10.0 mi WNW 9.2 mph - N/A   Mostly Cloudy
2:35 AM -0.4 °F -15.7 °F -9.4 °F 66% 30.08 in 10.0 mi WNW 9.2 mph 16.1 mph N/A   Partly Cloudy
2:55 AM -2.2 °F -18.9 °F -9.4 °F 71% 30.08 in 10.0 mi West 10.4 mph - N/A   Clear
3:15 AM -2.2 °F -20.7 °F -11.2 °F 66% 30.08 in 10.0 mi West 12.7 mph - N/A   Clear
3:35 AM -2.2 °F -19.9 °F -11.2 °F 66% 30.08 in 10.0 mi WNW 11.5 mph - N/A   Clear
3:55 AM -2.2 °F -18.9 °F -11.2 °F 66% 30.08 in 10.0 mi WNW 10.4 mph - N/A   Clear
4:15 AM -2.2 °F -18.0 °F -11.2 °F 66% 30.08 in 10.0 mi WNW 9.2 mph - N/A   Clear
4:35 AM -4.0 °F -20.2 °F -11.2 °F 71% 30.08 in 10.0 mi West 9.2 mph - N/A   Mostly Cloudy
4:55 AM -4.0 °F -21.2 °F -13.0 °F 65% 30.08 in 10.0 mi West 10.4 mph - N/A   Overcast
5:15 AM -4.0 °F -20.2 °F -11.2 °F 71% 30.09 in 10.0 mi West 9.2 mph - N/A   Mostly Cloudy
5:35 AM -4.0 °F -21.2 °F -11.2 °F 71% 30.10 in 10.0 mi West 10.4 mph - N/A   Overcast
5:55 AM -2.2 °F -18.9 °F -9.4 °F 71% 30.11 in 10.0 mi West 10.4 mph - N/A   Overcast
6:15 AM -2.2 °F -20.7 °F -11.2 °F 66% 30.11 in 10.0 mi West 12.7 mph - N/A   Overcast
6:35 AM -2.2 °F -18.9 °F -11.2 °F 66% 30.11 in 10.0 mi West 10.4 mph 17.3 mph N/A   Scattered Clouds
6:55 AM -2.2 °F -20.7 °F -9.4 °F 71% 30.12 in 10.0 mi West 12.7 mph - N/A   Clear
7:15 AM -2.2 °F -19.9 °F -11.2 °F 66% 30.13 in 10.0 mi West 11.5 mph - N/A   Clear
7:35 AM -4.0 °F -23.7 °F -11.2 °F 71% 30.14 in 10.0 mi West 13.8 mph - N/A   Clear
7:55 AM -4.0 °F -23.0 °F -11.2 °F 71% 30.15 in 10.0 mi West 12.7 mph - N/A   Clear
8:15 AM -2.2 °F -19.9 °F -11.2 °F 66% 30.15 in 10.0 mi West 11.5 mph - N/A   Clear
8:35 AM -2.2 °F -21.5 °F -11.2 °F 66% 30.15 in 10.0 mi West 13.8 mph 18.4 mph N/A   Clear
8:55 AM -2.2 °F -21.5 °F -9.4 °F 71% 30.15 in 10.0 mi West 13.8 mph - N/A   Clear
9:15 AM -0.4 °F -17.6 °F -9.4 °F 66% 30.16 in 10.0 mi West 11.5 mph - N/A   Clear
9:35 AM -0.4 °F -18.4 °F -9.4 °F 66% 30.15 in 10.0 mi West 12.7 mph - N/A   Clear
9:55 AM -0.4 °F -19.2 °F -9.4 °F 66% 30.16 in 10.0 mi West 13.8 mph - N/A   Clear
10:15 AM -0.4 °F -19.9 °F -9.4 °F 66% 30.16 in 10.0 mi West 15.0 mph - N/A   Clear
10:35 AM -0.4 °F -19.9 °F -7.6 °F 72% 30.17 in 10.0 mi West 15.0 mph 19.6 mph N/A   Clear
10:55 AM 1.4 °F -17.6 °F -9.4 °F 61% 30.18 in 10.0 mi West 15.0 mph - N/A   Clear
11:15 AM 1.4 °F -16.1 °F -9.4 °F 61% 30.17 in 10.0 mi West 12.7 mph 19.6 mph N/A   Clear
11:35 AM 1.4 °F -16.9 °F -7.6 °F 66% 30.17 in 10.0 mi West 13.8 mph - N/A   Clear
11:55 AM 1.4 °F -16.1 °F -9.4 °F 61% 30.17 in 10.0 mi West 12.7 mph - N/A   Clear
12:15 PM 3.2 °F -15.3 °F -7.6 °F 61% 30.18 in 10.0 mi West 15.0 mph - N/A   Clear
12:35 PM 3.2 °F -14.6 °F -7.6 °F 61% 30.18 in 10.0 mi West 13.8 mph - N/A   Clear
12:55 PM 3.2 °F -16.5 °F -7.6 °F 61% 30.18 in 10.0 mi West 17.3 mph - N/A   Clear
1:15 PM 3.2 °F -14.6 °F -7.6 °F 61% 30.18 in 10.0 mi West 13.8 mph - N/A   Clear
1:35 PM 3.2 °F -13.1 °F -7.6 °F 61% 30.18 in 10.0 mi West 11.5 mph 20.7 mph N/A   Clear
1:55 PM 3.2 °F -13.9 °F -7.6 °F 61% 30.18 in 10.0 mi West 12.7 mph 18.4 mph N/A   Clear
2:15 PM 3.2 °F -13.1 °F -7.6 °F 61% 30.18 in 10.0 mi West 11.5 mph 17.3 mph N/A   Clear
2:35 PM 3.2 °F -13.1 °F -7.6 °F 61% 30.18 in 10.0 mi West 11.5 mph - N/A   Clear
2:55 PM 3.2 °F -11.3 °F -7.6 °F 61% 30.19 in 10.0 mi West 9.2 mph - N/A   Clear
3:15 PM 3.2 °F -10.3 °F -7.6 °F 61% 30.19 in 10.0 mi West 8.1 mph - N/A   Clear
3:35 PM 3.2 °F -9.1 °F -7.6 °F 61% 30.20 in 10.0 mi West 6.9 mph - N/A   Clear
3:55 PM 3.2 °F -7.8 °F -7.6 °F 61% 30.20 in 10.0 mi West 5.8 mph - N/A   Clear
4:15 PM 3.2 °F -11.3 °F -9.4 °F 56% 30.21 in 10.0 mi West 9.2 mph - N/A   Clear
4:35 PM 3.2 °F -11.3 °F -9.4 °F 56% 30.22 in 10.0 mi West 9.2 mph - N/A   Clear
4:55 PM 3.2 °F -9.1 °F -9.4 °F 56% 30.23 in 10.0 mi WNW 6.9 mph - N/A   Clear
5:15 PM 1.4 °F -9.9 °F -11.2 °F 56% 30.24 in 10.0 mi WNW 5.8 mph - N/A   Clear
5:35 PM 1.4 °F -13.5 °F -9.4 °F 61% 30.25 in 10.0 mi WNW 9.2 mph - N/A   Clear
5:55 PM 1.4 °F -12.5 °F -9.4 °F 61% 30.26 in 10.0 mi WNW 8.1 mph - N/A   Clear
6:15 PM 1.4 °F -15.3 °F -11.2 °F 56% 30.27 in 10.0 mi WNW 11.5 mph - N/A   Clear
6:35 PM 1.4 °F -14.5 °F -11.2 °F 56% 30.27 in 10.0 mi NW 10.4 mph - N/A   Clear
6:55 PM 1.4 °F -16.9 °F -11.2 °F 56% 30.27 in 10.0 mi NNW 13.8 mph - N/A   Clear
7:15 PM -0.4 °F -19.2 °F -11.2 °F 60% 30.27 in 10.0 mi NNW 13.8 mph - N/A   Clear
7:35 PM -0.4 °F -19.2 °F -11.2 °F 60% 30.28 in 10.0 mi NW 13.8 mph - N/A   Clear
7:55 PM -0.4 °F -21.2 °F -13.0 °F 55% 30.28 in 10.0 mi NNW 17.3 mph - N/A   Clear
8:15 PM -0.4 °F -19.2 °F - N/A% 30.29 in 10.0 mi NNW 13.8 mph - N/A   Clear
8:35 PM -0.4 °F -16.7 °F -11.2 °F 60% 30.30 in 10.0 mi NNW 10.4 mph - N/A   Clear
8:55 PM -2.2 °F -21.5 °F -11.2 °F 66% 30.30 in 10.0 mi NNW 13.8 mph - N/A   Clear
9:15 PM -2.2 °F -18.9 °F -13.0 °F 60% 30.32 in 10.0 mi NW 10.4 mph - N/A   Clear
9:35 PM -2.2 °F -16.8 °F -11.2 °F 66% 30.33 in 10.0 mi NW 8.1 mph - N/A   Clear
9:55 PM -2.2 °F -19.9 °F -13.0 °F 60% 30.33 in 10.0 mi NW 11.5 mph - N/A   Clear
10:15 PM -2.2 °F -15.6 °F -14.8 °F 55% 30.33 in 10.0 mi NW 6.9 mph - N/A   Clear
10:35 PM -4.0 °F -16.3 °F -13.0 °F 65% 30.34 in 10.0 mi WNW 5.8 mph - N/A   Clear
10:55 PM -5.8 °F -14.5 °F -14.8 °F 65% 30.34 in 10.0 mi NW 3.5 mph - N/A   Clear
11:15 PM -5.8 °F -14.5 °F -13.0 °F 71% 30.36 in 10.0 mi WNW 3.5 mph - N/A   Clear
11:35 PM -5.8 °F -18.4 °F -14.8 °F 65% 30.36 in 10.0 mi WNW 5.8 mph - N/A   Clear
11:55 PM -5.8 °F -18.4 °F -14.8 °F 65% 30.35 in 10.0 mi NW 5.8 mph - N/A   Clear